Time;durP1;ratioP1;P1;durP2;ratioP2;P2;SDS_P1;SDS_P2;PMS_P1;PMS_P2;Temp;Humidity;BMP_temperature;BMP_pressure;BME280_temperature;BME280_humidity;BME280_pressure;Samples;Min_cycle;Max_cycle;Signal;HPM_P1;HPM_P2
2024/03/23 00:01:03;;;;;;;14.18;2.80;;;5.70;15.50;;;;;;6177141;28;20061;-83
2024/03/23 00:04:04;;;;;;;14.38;2.97;;;5.70;12.10;;;;;;6158132;28;20069;-83
2024/03/23 00:07:05;;;;;;;12.30;2.65;;;5.60;16.60;;;;;;6206162;28;20137;-83
2024/03/23 00:10:06;;;;;;;11.65;2.45;;;5.70;16.30;;;;;;6191769;28;20429;-83
2024/03/23 00:13:07;;;;;;;14.25;2.83;;;5.60;12.70;;;;;;6168145;28;20054;-83
2024/03/23 00:16:08;;;;;;;11.90;2.33;;;5.60;14.00;;;;;;6180044;28;20103;-83
2024/03/23 00:19:09;;;;;;;11.82;2.20;;;5.60;16.80;;;;;;6157859;28;20054;-83
2024/03/23 00:22:10;;;;;;;11.48;2.38;;;5.60;16.00;;;;;;6204952;28;20531;-83
2024/03/23 00:25:10;;;;;;;16.40;2.78;;;5.60;16.40;;;;;;6183155;28;20047;-84
2024/03/23 00:28:11;;;;;;;9.20;2.22;;;5.50;19.30;;;;;;6187529;28;20049;-83
2024/03/23 00:31:12;;;;;;;11.65;2.70;;;5.50;23.60;;;;;;6155925;28;20058;-84
2024/03/23 00:34:12;;;;;;;10.73;2.35;;;5.50;28.00;;;;;;6157858;28;20066;-83
2024/03/23 00:37:13;;;;;;;15.75;2.42;;;5.50;31.30;;;;;;6204841;28;20108;-83
2024/03/23 00:40:14;;;;;;;12.75;2.30;;;5.50;31.60;;;;;;6166559;28;20069;-83
2024/03/23 00:43:15;;;;;;;11.27;2.35;;;5.50;34.50;;;;;;6203055;28;20132;-83
2024/03/23 00:46:16;;;;;;;13.18;2.22;;;5.40;40.50;;;;;;6160515;28;20086;-83
2024/03/23 00:49:16;;;;;;;10.55;2.33;;;5.40;41.80;;;;;;6157548;28;20055;-83
2024/03/23 00:52:17;;;;;;;12.77;2.30;;;5.40;45.60;;;;;;6189261;28;20046;-84
2024/03/23 00:55:18;;;;;;;13.00;2.92;;;5.40;48.00;;;;;;6166274;28;20047;-84
2024/03/23 00:58:19;;;;;;;15.88;2.05;;;5.40;54.50;;;;;;6202843;28;20085;-83
2024/03/23 01:01:19;;;;;;;11.23;2.03;;;5.40;60.80;;;;;;6171414;28;20061;-83
2024/03/23 01:04:20;;;;;;;10.82;2.25;;;5.30;60.30;;;;;;6205164;28;20089;-83
2024/03/23 01:07:21;;;;;;;11.73;2.38;;;5.40;62.80;;;;;;6182460;28;20058;-83
2024/03/23 01:10:22;;;;;;;14.77;2.25;;;5.40;66.50;;;;;;6193270;28;20145;-83
2024/03/23 01:13:23;;;;;;;9.93;2.20;;;5.40;67.40;;;;;;6189024;28;20053;-83
2024/03/23 01:16:25;;;;;;;13.73;2.33;;;5.40;69.80;;;;;;6175643;28;20054;-82
2024/03/23 01:19:26;;;;;;;9.60;2.00;;;5.40;72.50;;;;;;6162713;28;20050;-83
2024/03/23 01:22:26;;;;;;;11.95;2.08;;;5.40;75.30;;;;;;6209377;28;20096;-83
2024/03/23 01:25:27;;;;;;;14.35;2.47;;;5.40;76.30;;;;;;6186998;28;20070;-83
2024/03/23 01:28:28;;;;;;;8.50;1.70;;;5.40;79.10;;;;;;6189403;28;20096;-83
2024/03/23 01:31:29;;;;;;;10.60;1.80;;;5.40;81.50;;;;;;6180456;28;20414;-82
2024/03/23 01:34:30;;;;;;;13.50;2.03;;;5.40;82.50;;;;;;6162227;28;20491;-82
2024/03/23 01:37:31;;;;;;;10.02;2.08;;;5.40;85.20;;;;;;6209186;28;20050;-83
2024/03/23 01:40:32;;;;;;;7.60;1.95;;;5.40;84.60;;;;;;6187817;28;20561;-82
2024/03/23 01:43:33;;;;;;;12.68;2.05;;;5.40;86.30;;;;;;6204715;28;20054;-83
2024/03/23 01:46:34;;;;;;;8.90;1.73;;;5.30;89.50;;;;;;6175109;28;20406;-81
2024/03/23 01:49:35;;;;;;;10.75;2.38;;;5.30;89.40;;;;;;6208819;28;20089;-82
2024/03/23 01:52:35;;;;;;;12.48;2.25;;;5.20;90.30;;;;;;6185773;28;20050;-82
2024/03/23 01:55:36;;;;;;;8.40;2.10;;;5.20;91.30;;;;;;6207308;28;20064;-83
2024/03/23 01:58:37;;;;;;;12.05;2.40;;;5.20;92.00;;;;;;6175102;28;20159;-81
2024/03/23 02:01:38;;;;;;;12.70;2.33;;;5.10;92.40;;;;;;6187617;28;20480;-81
2024/03/23 02:04:39;;;;;;;13.40;2.05;;;5.10;92.80;;;;;;6145067;28;20046;-82
2024/03/23 02:07:40;;;;;;;8.75;1.73;;;5.10;93.40;;;;;;6192128;28;20431;-81
2024/03/23 02:10:41;;;;;;;10.65;1.83;;;5.10;93.80;;;;;;6169939;28;20063;-82
2024/03/23 02:13:42;;;;;;;11.75;2.60;;;5.10;94.50;;;;;;6186275;28;20061;-78
2024/03/23 02:16:43;;;;;;;10.68;2.00;;;5.10;94.70;;;;;;6180267;28;20510;-83
2024/03/23 02:19:43;;;;;;;6.05;1.65;;;5.00;95.00;;;;;;6192757;28;20057;-82
2024/03/23 02:22:44;;;;;;;8.05;1.70;;;5.00;95.80;;;;;;6169373;28;20046;-82
2024/03/23 02:25:45;;;;;;;12.93;2.08;;;5.00;95.90;;;;;;6190567;28;20497;-82
2024/03/23 02:28:46;;;;;;;10.88;1.83;;;5.00;96.00;;;;;;6169708;28;20065;-82
2024/03/23 02:31:49;;;;;;;16.27;2.05;;;5.00;96.10;;;;;;6192555;28;20053;-82
2024/03/23 02:34:50;;;;;;;12.82;2.50;;;5.00;95.70;;;;;;6184664;28;20086;-82
2024/03/23 02:37:51;;;;;;;7.63;1.92;;;5.00;95.60;;;;;;6207572;28;20057;-83
2024/03/23 02:40:51;;;;;;;7.43;1.77;;;5.10;96.10;;;;;;6170018;28;20094;-82
2024/03/23 02:43:52;;;;;;;11.75;1.73;;;5.00;96.20;;;;;;6178295;28;20378;-82
2024/03/23 02:46:53;;;;;;;9.15;1.92;;;5.00;96.60;;;;;;6184686;28;20486;-83
2024/03/23 02:49:55;;;;;;;8.38;1.65;;;4.90;96.60;;;;;;6191281;28;20112;-82
2024/03/23 02:52:56;;;;;;;8.57;1.65;;;4.90;97.20;;;;;;6168248;28;20046;-83
2024/03/23 02:55:57;;;;;;;8.23;1.92;;;4.80;97.00;;;;;;6206856;28;20056;-83
2024/03/23 02:58:57;;;;;;;9.52;1.60;;;4.90;97.30;;;;;;6170093;28;20058;-83
2024/03/23 03:01:59;;;;;;;13.65;2.25;;;4.80;97.20;;;;;;6184910;28;20414;-84
2024/03/23 03:05:00;;;;;;;14.00;2.22;;;4.80;97.70;;;;;;6191751;28;20142;-84
2024/03/23 03:08:01;;;;;;;10.43;1.65;;;4.70;98.10;;;;;;6184448;28;20050;-84
2024/03/23 03:11:02;;;;;;;8.73;1.65;;;4.80;97.80;;;;;;6190625;28;20602;-84
2024/03/23 03:14:03;;;;;;;8.73;1.85;;;4.70;98.40;;;;;;6181886;28;20798;-84
2024/03/23 03:17:04;;;;;;;7.13;1.52;;;4.70;98.60;;;;;;6168183;28;20050;-82
2024/03/23 03:20:05;;;;;;;10.43;1.60;;;4.70;99.10;;;;;;6192070;28;20069;-82
2024/03/23 03:23:06;;;;;;;5.75;1.48;;;4.70;99.40;;;;;;6183697;28;20049;-81
2024/03/23 03:26:07;;;;;;;6.72;1.60;;;4.60;99.60;;;;;;6207194;28;20057;-81
2024/03/23 03:29:08;;;;;;;9.75;1.42;;;4.70;99.80;;;;;;6171189;28;20519;-82
2024/03/23 03:32:09;;;;;;;8.30;1.50;;;4.60;99.90;;;;;;6183748;28;20066;-83
2024/03/23 03:35:10;;;;;;;7.05;1.58;;;4.60;99.90;;;;;;6205779;28;20085;-83
2024/03/23 03:38:11;;;;;;;9.68;1.63;;;4.50;99.90;;;;;;6183970;28;20445;-84
2024/03/23 03:41:11;;;;;;;8.25;1.42;;;4.50;99.90;;;;;;6190557;28;20136;-84
2024/03/23 03:44:12;;;;;;;9.93;1.77;;;4.50;99.90;;;;;;6171969;28;20137;-84
2024/03/23 03:47:13;;;;;;;11.68;1.40;;;4.50;99.90;;;;;;6167181;28;20482;-83
2024/03/23 03:50:14;;;;;;;9.18;1.40;;;4.50;99.90;;;;;;6206541;28;20136;-84
2024/03/23 03:53:15;;;;;;;7.82;1.63;;;4.50;99.90;;;;;;6183318;28;20050;-83
2024/03/23 03:56:16;;;;;;;12.02;1.67;;;4.50;99.90;;;;;;6206621;28;20053;-84
2024/03/23 03:59:17;;;;;;;14.45;2.03;;;4.50;99.90;;;;;;6188073;28;20054;-83
2024/03/23 04:02:18;;;;;;;6.43;1.15;;;4.40;99.90;;;;;;6183178;28;20089;-83
2024/03/23 04:05:19;;;;;;;8.68;1.45;;;4.40;99.90;;;;;;6190854;28;20136;-82
2024/03/23 04:08:20;;;;;;;11.57;1.90;;;4.40;99.90;;;;;;6183261;28;20050;-82
2024/03/23 04:11:21;;;;;;;9.15;1.60;;;4.50;99.90;;;;;;6189717;28;20068;-82
2024/03/23 04:14:22;;;;;;;11.88;1.60;;;4.40;99.90;;;;;;6183474;28;20089;-83
2024/03/23 04:17:24;;;;;;;9.80;1.60;;;4.40;99.90;;;;;;6183807;28;20058;-83
2024/03/23 04:20:25;;;;;;;9.68;1.45;;;4.40;99.90;;;;;;6206828;28;20049;-83
2024/03/23 04:23:26;;;;;;;10.45;2.13;;;4.40;99.90;;;;;;6183187;28;20089;-84
2024/03/23 04:26:27;;;;;;;15.40;2.75;;;4.40;99.90;;;;;;6190127;28;20101;-84
2024/03/23 04:29:28;;;;;;;8.02;1.42;;;4.40;99.90;;;;;;6180062;28;20089;-84
2024/03/23 04:32:28;;;;;;;10.40;1.48;;;4.40;99.90;;;;;;6167820;28;20494;-84
2024/03/23 04:35:29;;;;;;;11.05;2.05;;;4.40;99.90;;;;;;6189472;28;20143;-83
2024/03/23 04:38:30;;;;;;;11.75;1.40;;;4.40;99.90;;;;;;6182926;28;20093;-84
2024/03/23 04:41:31;;;;;;;10.63;1.45;;;4.40;99.90;;;;;;6206788;28;20057;-84
2024/03/23 04:44:32;;;;;;;11.77;1.90;;;4.50;99.90;;;;;;6191136;28;20061;-84
2024/03/23 04:47:35;;;;;;;10.15;2.00;;;4.50;99.80;;;;;;6185670;28;20137;-84
2024/03/23 04:50:36;;;;;;;15.02;1.88;;;4.40;99.70;;;;;;6195605;28;20056;-85
2024/03/23 04:53:37;;;;;;;12.63;2.72;;;4.40;99.90;;;;;;6172772;28;20090;-85
2024/03/23 04:56:38;;;;;;;13.63;1.90;;;4.40;99.90;;;;;;6211279;28;20143;-84
2024/03/23 04:59:38;;;;;;;13.85;1.77;;;4.30;99.90;;;;;;6174529;28;20520;-84
2024/03/23 05:02:39;;;;;;;6.65;1.45;;;4.40;99.90;;;;;;6171904;28;20468;-83
2024/03/23 05:05:40;;;;;;;10.88;1.90;;;4.40;99.90;;;;;;6210080;28;20081;-83
2024/03/23 05:08:41;;;;;;;11.93;1.80;;;4.30;99.90;;;;;;6187761;28;20104;-83
2024/03/23 05:11:42;;;;;;;11.00;1.60;;;4.40;99.90;;;;;;6210499;28;20088;-83
2024/03/23 05:14:43;;;;;;;8.23;1.77;;;4.30;99.90;;;;;;6195465;28;20054;-83
2024/03/23 05:17:43;;;;;;;11.00;1.80;;;4.30;99.90;;;;;;6171015;28;20503;-83
2024/03/23 05:20:44;;;;;;;9.88;1.75;;;4.30;99.90;;;;;;6210837;28;20057;-83
2024/03/23 05:23:45;;;;;;;8.15;1.88;;;4.30;99.90;;;;;;6188550;28;20054;-83
2024/03/23 05:26:46;;;;;;;7.13;1.55;;;4.30;99.90;;;;;;6195231;28;20135;-84
2024/03/23 05:29:47;;;;;;;8.45;1.20;;;4.30;99.90;;;;;;6201886;28;20061;-84
2024/03/23 05:32:48;;;;;;;11.15;1.77;;;4.20;99.90;;;;;;6189408;28;20064;-84
2024/03/23 05:35:49;;;;;;;11.10;1.88;;;4.20;99.90;;;;;;6210911;28;20108;-83
2024/03/23 05:38:49;;;;;;;9.75;1.88;;;4.20;99.90;;;;;;6172691;28;20050;-84
2024/03/23 05:41:50;;;;;;;9.60;1.38;;;4.20;99.90;;;;;;6211804;28;20038;-84
2024/03/23 05:44:51;;;;;;;12.95;1.98;;;4.10;99.90;;;;;;6197762;28;20050;-83
2024/03/23 05:47:52;;;;;;;11.98;2.00;;;4.10;99.90;;;;;;6188821;28;20062;-82
2024/03/23 05:50:52;;;;;;;9.05;1.60;;;4.20;99.90;;;;;;6212086;28;20058;-84
2024/03/23 05:53:53;;;;;;;14.93;1.80;;;4.20;99.90;;;;;;6188225;28;20062;-83
2024/03/23 05:56:54;;;;;;;7.57;2.05;;;4.20;99.90;;;;;;6211522;28;20390;-82
2024/03/23 05:59:55;;;;;;;11.25;2.08;;;4.20;99.90;;;;;;6198434;28;20053;-83
2024/03/23 06:02:56;;;;;;;10.95;2.05;;;4.20;99.90;;;;;;6171982;28;20478;-83
2024/03/23 06:05:57;;;;;;;11.70;2.38;;;4.20;99.90;;;;;;6211716;28;20505;-83
2024/03/23 06:08:58;;;;;;;10.60;1.88;;;4.20;99.90;;;;;;6188648;28;20086;-85
2024/03/23 06:11:58;;;;;;;11.45;1.90;;;4.30;99.90;;;;;;6210594;28;20050;-83
2024/03/23 06:15:00;;;;;;;11.30;2.10;;;4.20;99.90;;;;;;6176089;28;20054;-82
2024/03/23 06:18:00;;;;;;;10.25;2.05;;;4.20;99.90;;;;;;6209535;28;20386;-83
2024/03/23 06:21:01;;;;;;;17.73;2.72;;;4.30;99.90;;;;;;6185890;28;20494;-83
2024/03/23 06:24:02;;;;;;;9.48;2.00;;;4.30;99.90;;;;;;6209033;28;20073;-82
2024/03/23 06:27:03;;;;;;;10.10;2.10;;;4.40;99.90;;;;;;6185473;28;20090;-82
2024/03/23 06:30:04;;;;;;;8.70;2.25;;;4.40;99.90;;;;;;6203591;28;20063;-83
2024/03/23 06:33:05;;;;;;;9.70;2.10;;;4.50;99.80;;;;;;6185870;28;20061;-86
2024/03/23 06:36:06;;;;;;;12.65;1.55;;;4.50;99.20;;;;;;6208500;28;20054;-84
2024/03/23 06:39:09;;;;;;;10.07;1.73;;;4.60;98.20;;;;;;6185341;28;20104;-83
2024/03/23 06:42:13;;;;;;;13.80;1.92;;;4.70;98.60;;;;;;6161497;28;20124;-83
2024/03/23 06:45:13;;;;;;;13.65;2.00;;;4.70;97.90;;;;;;6197652;28;20097;-83
2024/03/23 06:48:14;;;;;;;13.35;2.20;;;4.70;97.40;;;;;;6169449;28;20445;-83
2024/03/23 06:51:15;;;;;;;9.48;1.70;;;5.10;96.70;;;;;;6192369;28;20050;-82
2024/03/23 06:54:18;;;;;;;10.65;2.15;;;5.80;91.50;;;;;;6185592;28;20081;-83
2024/03/23 06:57:19;;;;;;;10.98;2.38;;;6.40;85.60;;;;;;6193731;28;20466;-85
2024/03/23 07:00:20;;;;;;;11.25;2.08;;;6.90;61.50;;;;;;6172760;28;20062;-84
2024/03/23 07:03:21;;;;;;;11.73;1.70;;;7.30;38.60;;;;;;6194249;28;20089;-83
2024/03/23 07:06:22;;;;;;;11.27;1.55;;;7.60;30.50;;;;;;6185793;28;20117;-82
2024/03/23 07:09:25;;;;;;;11.02;2.05;;;7.40;17.50;;;;;;6228913;28;20042;-85
2024/03/23 07:12:26;;;;;;;9.43;1.90;;;7.20;39.90;;;;;;6181739;28;20080;-85
2024/03/23 07:15:28;;;;;;;9.02;1.92;;;7.10;32.00;;;;;;6185971;28;20053;-85
2024/03/23 07:18:29;;;;;;;9.10;1.63;;;7.60;27.10;;;;;;6194885;28;20046;-86
2024/03/23 07:21:30;;;;;;;7.47;1.40;;;8.20;12.30;;;;;;6212603;28;20495;-87
2024/03/23 07:24:32;;;;;;;8.43;1.35;;;8.60;1.00;;;;;;6172395;28;20520;-84
2024/03/23 07:27:33;;;;;;;9.18;1.40;;;8.90;1.00;;;;;;6194936;28;20053;-84
2024/03/23 07:30:34;;;;;;;7.03;1.30;;;9.40;1.00;;;;;;6153721;28;20065;-85
2024/03/23 07:33:35;;;;;;;5.97;1.60;;;9.80;1.00;;;;;;6209464;28;20078;-84
2024/03/23 07:36:36;;;;;;;10.82;1.75;;;10.00;1.00;;;;;;6185103;28;20050;-84
2024/03/23 07:39:37;;;;;;;6.57;1.50;;;10.10;1.00;;;;;;6208230;28;20144;-83
2024/03/23 07:42:38;;;;;;;8.02;1.50;;;10.30;1.00;;;;;;6168200;28;20061;-85
2024/03/23 07:45:38;;;;;;;7.82;1.77;;;10.40;1.00;;;;;;6206811;28;20057;-84
2024/03/23 07:48:42;;;;;;;6.72;1.52;;;10.70;1.00;;;;;;6168411;28;20504;-85
2024/03/23 07:51:44;;;;;;;7.50;1.60;;;10.50;1.00;;;;;;6190378;28;20061;-84
2024/03/23 07:54:45;;;;;;;6.60;1.48;;;10.80;1.00;;;;;;6167560;28;20405;-85
2024/03/23 07:57:46;;;;;;;7.50;1.55;;;11.00;1.00;;;;;;6191674;28;20085;-84
2024/03/23 08:00:46;;;;;;;9.75;1.58;;;11.30;1.00;;;;;;6157467;28;20486;-85
2024/03/23 08:03:48;;;;;;;6.40;1.55;;;11.20;1.00;;;;;;6206179;28;20065;-85
2024/03/23 08:06:49;;;;;;;6.07;1.60;;;11.10;1.00;;;;;;6184584;28;20050;-85
2024/03/23 08:09:50;;;;;;;7.40;1.58;;;11.20;1.00;;;;;;6198467;28;20069;-82
2024/03/23 08:12:50;;;;;;;9.00;1.90;;;11.50;1.00;;;;;;6167190;28;20525;-83
2024/03/23 08:15:51;;;;;;;8.93;1.45;;;12.00;1.00;;;;;;6173820;28;20133;-82
2024/03/23 08:18:52;;;;;;;6.97;2.08;;;12.50;1.00;;;;;;6183118;28;20054;-82
2024/03/23 08:21:54;;;;;;;7.05;1.30;;;12.30;1.00;;;;;;6206748;28;20053;-85
2024/03/23 08:24:55;;;;;;;5.40;1.30;;;12.20;1.00;;;;;;6183905;28;20056;-81
2024/03/23 08:27:55;;;;;;;6.95;1.45;;;12.40;1.00;;;;;;6207071;28;20140;-84
2024/03/23 08:30:56;;;;;;;7.50;1.48;;;12.70;1.00;;;;;;6156633;28;20117;-83
2024/03/23 08:33:57;;;;;;;10.60;2.08;;;12.90;1.00;;;;;;6157738;28;20413;-84
2024/03/23 08:36:57;;;;;;;6.65;1.20;;;12.60;1.00;;;;;;6206039;28;20140;-87
2024/03/23 08:39:58;;;;;;;8.43;1.35;;;13.00;1.00;;;;;;6184014;28;20379;-88
2024/03/23 08:42:59;;;;;;;6.15;1.20;;;13.00;1.00;;;;;;6207067;28;20058;-87
2024/03/23 08:46:00;;;;;;;5.43;1.50;;;13.60;1.00;;;;;;6169216;28;20089;-88
2024/03/23 08:49:01;;;;;;;8.52;1.33;;;14.00;1.00;;;;;;6158497;28;20130;-83
2024/03/23 08:52:02;;;;;;;7.50;1.20;;;14.40;1.00;;;;;;6188973;28;20053;-84
2024/03/23 08:55:02;;;;;;;7.38;1.40;;;14.70;1.00;;;;;;6184809;28;20386;-84
2024/03/23 08:58:03;;;;;;;6.07;1.52;;;14.70;1.00;;;;;;6208580;28;20097;-89
2024/03/23 09:01:04;;;;;;;7.38;1.30;;;14.80;1.00;;;;;;6163080;28;20064;-84
2024/03/23 09:04:05;;;;;;;6.95;1.50;;;14.60;1.00;;;;;;6159122;28;20051;-87
2024/03/23 09:07:05;;;;;;;8.18;1.38;;;14.60;1.00;;;;;;6205786;28;20050;-85
2024/03/23 09:10:06;;;;;;;8.45;1.58;;;14.70;1.00;;;;;;6192609;28;20058;-85
2024/03/23 09:13:07;;;;;;;7.47;1.77;;;14.50;1.00;;;;;;6183896;28;20058;-84
2024/03/23 09:16:09;;;;;;;10.23;2.08;;;14.20;1.00;;;;;;6201483;28;20054;-87
2024/03/23 09:19:10;;;;;;;6.47;1.63;;;13.90;1.00;;;;;;6158700;28;20415;-84
2024/03/23 09:22:10;;;;;;;7.28;1.50;;;14.60;1.00;;;;;;6189947;28;20061;-88
2024/03/23 09:25:11;;;;;;;11.63;1.48;;;13.90;1.00;;;;;;6168527;28;20057;-87
2024/03/23 09:28:12;;;;;;;10.18;1.73;;;13.80;1.00;;;;;;6205428;28;20147;-86
2024/03/23 09:31:15;;;;;;;5.68;1.30;;;14.30;1.00;;;;;;6182724;28;20133;-85
2024/03/23 09:34:16;;;;;;;6.10;1.55;;;14.40;1.00;;;;;;6161239;28;20455;-85
2024/03/23 09:37:16;;;;;;;7.88;1.38;;;14.00;1.00;;;;;;6210561;28;20128;-84
2024/03/23 09:40:17;;;;;;;7.30;1.30;;;14.20;1.00;;;;;;6186355;28;20490;-81
2024/03/23 09:43:18;;;;;;;6.70;1.50;;;13.60;1.00;;;;;;6207094;28;20120;-83
2024/03/23 09:46:19;;;;;;;8.13;1.50;;;14.20;1.00;;;;;;6169161;28;20517;-84
2024/03/23 09:49:19;;;;;;;8.98;1.52;;;14.00;1.00;;;;;;6162003;28;20051;-82
2024/03/23 09:52:20;;;;;;;9.25;1.63;;;13.70;1.00;;;;;;6170384;28;20058;-83
2024/03/23 09:55:21;;;;;;;8.40;1.92;;;13.30;1.00;;;;;;6192622;28;20050;-82
2024/03/23 09:58:21;;;;;;;7.80;1.67;;;13.30;1.00;;;;;;6207530;28;20108;-87
2024/03/23 10:01:22;;;;;;;8.55;1.80;;;13.00;1.00;;;;;;6164242;28;20469;-82
2024/03/23 10:04:23;;;;;;;6.25;1.65;;;13.70;1.00;;;;;;6208507;28;20434;-82
2024/03/23 10:07:23;;;;;;;6.68;1.60;;;13.80;1.00;;;;;;6185467;28;20061;-81
2024/03/23 10:10:24;;;;;;;10.23;1.70;;;13.30;1.00;;;;;;6187775;28;20138;-82
2024/03/23 10:13:25;;;;;;;6.95;1.65;;;13.00;1.00;;;;;;6196563;28;20951;-80
2024/03/23 10:16:27;;;;;;;7.32;2.00;;;12.80;1.00;;;;;;6166379;28;20063;-81
2024/03/23 10:19:27;;;;;;;8.27;1.50;;;12.40;1.00;;;;;;6153064;28;20055;-87
2024/03/23 10:22:28;;;;;;;6.68;1.48;;;13.50;1.00;;;;;;6184193;28;20154;-80
2024/03/23 10:25:29;;;;;;;7.53;1.65;;;14.10;1.00;;;;;;6177922;28;20138;-84
2024/03/23 10:28:30;;;;;;;9.00;1.23;;;14.30;1.00;;;;;;6196419;28;20483;-83
2024/03/23 10:31:31;;;;;;;5.85;1.33;;;14.20;1.00;;;;;;6162024;28;20061;-85
2024/03/23 10:34:31;;;;;;;4.30;1.20;;;13.90;1.00;;;;;;6152884;29;20062;-83
2024/03/23 10:37:32;;;;;;;9.57;1.80;;;14.80;1.00;;;;;;6200819;28;20470;-85
2024/03/23 10:40:33;;;;;;;7.25;1.30;;;14.70;1.00;;;;;;6179162;28;20158;-84
2024/03/23 10:43:33;;;;;;;6.50;1.17;;;15.00;1.00;;;;;;6195438;28;20043;-84
2024/03/23 10:46:34;;;;;;;9.02;1.88;;;15.20;1.00;;;;;;6155612;28;20069;-85
2024/03/23 10:49:35;;;;;;;4.70;1.00;;;14.70;1.00;;;;;;6200174;28;20061;-83
2024/03/23 10:52:36;;;;;;;6.97;1.48;;;14.50;1.00;;;;;;6177728;28;20058;-83
2024/03/23 10:55:36;;;;;;;6.60;1.30;;;14.00;1.00;;;;;;6197197;28;20058;-84
2024/03/23 10:58:37;;;;;;;5.53;1.05;;;14.20;1.00;;;;;;6171762;28;20064;-81
2024/03/23 11:01:38;;;;;;;21.85;2.00;;;14.50;1.00;;;;;;6185724;28;20054;-83
2024/03/23 11:04:39;;;;;;;19.00;2.40;;;14.20;1.00;;;;;;6178663;28;20133;-83
2024/03/23 11:07:41;;;;;;;31.08;2.75;;;14.50;1.00;;;;;;6185397;28;20058;-83
2024/03/23 11:10:41;;;;;;;6.57;1.48;;;14.20;1.00;;;;;;6192183;28;20065;-82
2024/03/23 11:13:42;;;;;;;6.00;1.70;;;13.70;1.00;;;;;;6180835;28;20112;-84
2024/03/23 11:16:43;;;;;;;6.10;1.48;;;14.60;1.00;;;;;;6172613;28;20552;-83
2024/03/23 11:19:44;;;;;;;8.80;1.30;;;15.20;1.00;;;;;;6151187;29;20047;-84
2024/03/23 11:22:46;;;;;;;14.00;1.50;;;15.40;1.00;;;;;;6198581;28;20050;-83
2024/03/23 11:25:47;;;;;;;6.25;1.60;;;15.20;1.00;;;;;;6177303;28;20054;-82
2024/03/23 11:28:48;;;;;;;7.20;1.70;;;14.70;1.00;;;;;;6179975;28;20056;-82
2024/03/23 11:31:49;;;;;;;5.47;1.67;;;14.10;1.00;;;;;;6189259;28;20050;-82
2024/03/23 11:34:49;;;;;;;5.18;1.63;;;14.90;1.00;;;;;;6175944;28;20065;-85
2024/03/23 11:37:50;;;;;;;6.28;1.40;;;14.30;1.00;;;;;;6183187;28;20097;-85
2024/03/23 11:40:51;;;;;;;7.72;1.60;;;14.40;1.00;;;;;;6161763;28;20058;-85
2024/03/23 11:43:52;;;;;;;5.50;1.23;;;15.60;1.00;;;;;;6195765;28;20633;-84
2024/03/23 11:46:53;;;;;;;8.45;1.30;;;16.10;1.00;;;;;;6174330;28;20717;-84
2024/03/23 11:49:54;;;;;;;5.80;0.95;;;15.40;1.00;;;;;;6199683;28;20085;-83
2024/03/23 11:52:54;;;;;;;7.57;1.92;;;14.60;1.00;;;;;;6176450;28;20054;-82
2024/03/23 11:55:55;;;;;;;12.40;1.70;;;14.40;1.00;;;;;;6197930;28;20065;-82
2024/03/23 11:58:56;;;;;;;6.90;1.45;;;14.30;1.00;;;;;;6181691;28;20082;-77
2024/03/23 12:01:57;;;;;;;9.88;1.40;;;13.90;1.00;;;;;;6178305;28;20058;-85
2024/03/23 12:04:57;;;;;;;8.25;1.30;;;14.20;1.00;;;;;;6177413;28;20061;-82
2024/03/23 12:07:58;;;;;;;6.40;1.40;;;14.10;1.00;;;;;;6200299;28;20466;-80
2024/03/23 12:10:58;;;;;;;7.53;1.60;;;14.40;1.00;;;;;;6178330;28;20055;-87
2024/03/23 12:13:59;;;;;;;6.85;1.25;;;15.40;1.00;;;;;;6168820;28;20055;-77
2024/03/23 12:17:00;;;;;;;11.20;1.95;;;16.10;1.00;;;;;;6175069;28;20565;-86
2024/03/23 12:20:01;;;;;;;5.43;1.10;;;16.50;1.00;;;;;;6200710;28;20097;-85
2024/03/23 12:23:03;;;;;;;6.75;1.20;;;16.90;1.00;;;;;;6159607;28;20058;-83
2024/03/23 12:26:04;;;;;;;6.25;1.48;;;17.40;1.00;;;;;;6183543;28;20065;-84
2024/03/23 12:29:05;;;;;;;5.60;1.00;;;17.40;1.00;;;;;;6180536;28;20364;-82
2024/03/23 12:32:06;;;;;;;5.47;1.08;;;16.40;1.00;;;;;;6177281;28;20113;-82
2024/03/23 12:35:08;;;;;;;7.05;1.10;;;16.50;1.00;;;;;;6201563;28;20060;-84
2024/03/23 12:38:09;;;;;;;4.43;1.17;;;16.60;1.00;;;;;;6178595;28;20051;-85
2024/03/23 12:41:11;;;;;;;8.23;1.40;;;16.00;1.00;;;;;;6202685;28;20568;-88
2024/03/23 12:44:12;;;;;;;4.85;1.10;;;15.80;1.00;;;;;;6162677;28;20050;-88
2024/03/23 12:47:13;;;;;;;6.00;1.17;;;16.70;1.00;;;;;;6174364;28;20557;-86
2024/03/23 12:50:14;;;;;;;5.13;1.10;;;17.20;1.00;;;;;;6197318;28;20058;-83
2024/03/23 12:53:15;;;;;;;4.53;1.33;;;17.90;1.00;;;;;;6173847;28;20054;-84
2024/03/23 12:56:15;;;;;;;5.30;1.00;;;18.30;1.00;;;;;;6196920;28;20050;-83
2024/03/23 12:59:18;;;;;;;5.60;1.13;;;18.40;1.00;;;;;;6154662;28;20586;-92
2024/03/23 13:02:18;;;;;;;5.88;0.93;;;18.20;1.00;;;;;;6176279;28;20080;-87
2024/03/23 13:05:19;;;;;;;12.60;1.20;;;18.10;1.00;;;;;;6197749;28;20054;-89
2024/03/23 13:08:20;;;;;;;4.60;1.13;;;17.10;1.00;;;;;;6161838;28;20059;-89
2024/03/23 13:11:21;;;;;;;3.97;0.90;;;16.00;1.00;;;;;;6186195;28;20409;-87
2024/03/23 13:14:23;;;;;;;5.47;1.27;;;15.00;1.00;;;;;;6184181;28;20058;-86
2024/03/23 13:17:24;;;;;;;6.13;1.52;;;14.60;1.00;;;;;;6179414;28;20051;-86
2024/03/23 13:20:25;;;;;;;6.90;1.33;;;15.00;1.00;;;;;;6202897;28;20060;-86
2024/03/23 13:23:26;;;;;;;7.45;1.52;;;14.90;1.00;;;;;;6179843;28;20059;-86
2024/03/23 13:26:26;;;;;;;12.23;2.10;;;14.70;1.00;;;;;;6202121;28;20050;-86
2024/03/23 13:29:27;;;;;;;5.68;1.50;;;14.20;1.00;;;;;;6164260;28;20054;-87
2024/03/23 13:32:28;;;;;;;6.38;1.45;;;13.70;1.00;;;;;;6164140;28;20050;-86
2024/03/23 13:35:29;;;;;;;5.15;1.10;;;13.30;1.00;;;;;;6185836;28;20058;-85
2024/03/23 13:38:30;;;;;;;5.68;1.33;;;13.00;1.00;;;;;;6179028;28;20051;-84
2024/03/23 13:41:30;;;;;;;10.40;1.75;;;12.70;1.00;;;;;;6201996;28;20054;-85
2024/03/23 13:44:31;;;;;;;8.10;1.35;;;12.40;1.00;;;;;;6156338;28;20128;-88
2024/03/23 13:47:32;;;;;;;4.25;1.00;;;11.90;1.00;;;;;;6163468;28;20058;-89
2024/03/23 13:50:33;;;;;;;5.13;1.17;;;11.20;1.00;;;;;;6185316;28;20058;-86
2024/03/23 13:53:33;;;;;;;6.03;1.10;;;10.70;1.00;;;;;;6178937;28;20375;-86
2024/03/23 13:56:34;;;;;;;4.32;0.82;;;10.10;1.00;;;;;;6201292;28;20058;-87
2024/03/23 13:59:35;;;;;;;2.25;0.65;;;9.70;1.00;;;;;;6185630;28;20141;-87
2024/03/23 14:02:37;;;;;;;4.35;0.70;;;9.30;1.00;;;;;;6179620;28;20069;-84
2024/03/23 14:05:38;;;;;;;7.15;1.00;;;9.00;1.00;;;;;;6202205;28;20057;-88
2024/03/23 14:08:39;;;;;;;2.88;0.80;;;9.00;1.00;;;;;;6180479;28;20106;-91
2024/03/23 14:11:41;;;;;;;5.07;0.70;;;9.00;1.00;;;;;;6186177;28;20054;-90
2024/03/23 14:14:42;;;;;;;2.65;0.85;;;8.90;1.00;;;;;;6170881;28;20061;-87
2024/03/23 14:17:44;;;;;;;2.53;0.80;;;9.20;1.00;;;;;;6164549;28;20085;-91
2024/03/23 14:20:44;;;;;;;2.95;0.80;;;9.40;1.00;;;;;;6190651;28;20054;-89
2024/03/23 14:23:45;;;;;;;3.85;0.98;;;10.20;1.00;;;;;;6178801;28;20482;-89
2024/03/23 14:26:46;;;;;;;4.05;1.00;;;11.20;1.00;;;;;;6202256;28;20054;-89
2024/03/23 14:29:47;;;;;;;2.95;0.77;;;11.80;1.00;;;;;;6171965;28;20047;-88
2024/03/23 14:32:48;;;;;;;4.15;1.00;;;12.20;1.00;;;;;;6163577;28;20051;-86
2024/03/23 14:35:49;;;;;;;3.85;1.10;;;12.70;1.00;;;;;;6206476;28;20054;-88
2024/03/23 14:38:50;;;;;;;3.30;0.95;;;13.00;1.00;;;;;;6164086;28;20090;-86
2024/03/23 14:41:51;;;;;;;4.47;1.08;;;13.00;1.00;;;;;;6185745;28;20077;-87
2024/03/23 14:44:52;;;;;;;4.00;1.15;;;13.30;1.00;;;;;;6176555;28;20125;-88
2024/03/23 14:47:53;;;;;;;3.13;0.80;;;13.50;1.00;;;;;;6179873;28;20055;-90
2024/03/23 14:50:54;;;;;;;2.33;0.80;;;13.50;1.00;;;;;;6186484;28;20089;-91
2024/03/23 14:53:55;;;;;;;3.40;0.90;;;13.70;1.00;;;;;;6179849;28;20059;-89
2024/03/23 14:56:57;;;;;;;3.63;0.85;;;13.30;1.00;;;;;;6206371;28;20087;-86
2024/03/23 14:59:58;;;;;;;10.15;1.40;;;12.80;1.00;;;;;;6151146;28;20057;-88
2024/03/23 15:02:59;;;;;;;2.45;0.93;;;12.20;1.00;;;;;;6203547;28;20054;-88
2024/03/23 15:06:01;;;;;;;5.97;1.00;;;11.90;1.00;;;;;;6162944;28;20478;-91
2024/03/23 15:09:07;;;;;;;2.55;1.00;;;12.00;1.00;;;;;;6187102;28;20050;-90
2024/03/23 15:12:07;;;;;;;3.72;0.90;;;12.40;1.00;;;;;;6191814;28;20054;-93
2024/03/23 15:15:08;;;;;;;2.20;0.80;;;12.50;1.00;;;;;;6200034;28;20046;-91
2024/03/23 15:18:09;;;;;;;2.50;0.98;;;12.70;1.00;;;;;;6173897;28;20054;-91
2024/03/23 15:21:11;;;;;;;4.07;0.90;;;12.80;1.00;;;;;;6210396;28;20053;-92
2024/03/23 15:24:12;;;;;;;3.20;0.90;;;12.60;1.00;;;;;;6171133;28;20046;-94
2024/03/23 15:27:12;;;;;;;3.38;0.80;;;12.80;1.00;;;;;;6210060;28;20112;-91
2024/03/23 15:30:13;;;;;;;2.92;0.80;;;12.80;1.00;;;;;;6161125;28;20089;-92
2024/03/23 15:33:14;;;;;;;2.42;0.70;;;12.80;1.00;;;;;;6196283;28;20050;-91
2024/03/23 15:36:15;;;;;;;5.47;1.40;;;12.80;1.00;;;;;;6201399;28;20077;-94
2024/03/23 15:39:16;;;;;;;4.65;0.90;;;12.40;1.00;;;;;;6167830;28;20502;-91
2024/03/23 15:42:17;;;;;;;2.88;0.90;;;12.10;1.00;;;;;;6221519;28;20061;-92
2024/03/23 15:45:18;;;;;;;3.72;1.00;;;11.70;1.00;;;;;;6173741;28;20471;-93
2024/03/23 15:48:19;;;;;;;6.97;2.00;;;11.50;1.00;;;;;;6195112;28;20054;-90